Startpagina
METAR-TAF:

METAR-TAF

Vliegvelden :

Flughafen Berlin-Tegel

Berlijn, Duitsland

breedte: 52-34N, lengte: 013-19E, hoogte: 37 m

Actueel weer

Dit bericht is 34 minuten geleden gemaakt, om 17:20 UTC
Wind 5 kt uit het oostnoordoosten, variërend tussen het noordnoordoosten en het oosten
Temperatuur 24°C
Vochtigheid 25%
Druk 1010 hPa
Zicht 10 km of meer
geen wolken onder 1500 m en geen cumulonimbus

METAR: EDDT 251720Z 07005KT 030V100 CAVOK 24/03 Q1010 NOSIG

Tijdstip: 19:54 (17:54 UTC)

Verwachting

Dit bericht is 54 minuten geleden gemaakt, om 17:00 UTC
Verwachting geldig van 25 om 18 UTC tot 26 om 18 UTC
Wind 6 kt uit het oosten
Zicht 10 km of meer
geen wolken onder 1500 m en geen cumulonimbus
Wijzigt naar
van 26 om 08 UTC tot 26 om 10 UTC
Wind 9 kt uit het westen

TAF: EDDT 251700Z 2518/2618 09006KT CAVOK BECMG 2608/2610 27009KT

Waarnemingen en weersverwachtingen van meer dan 4000 vliegvelden (METAR en TAF).

De beschikbare stations zijn de gele en rode punten op de kaart.

Ga met uw muis naar het station om de naam te zien.

Klik dan om waarnemingen en weersverwachtingen te zien.

kaart wijzigen: klik op de groene knoppen met een zwart kruis om in te zoomen, op de groene knop met een streepje om uit te zoomen of op de groene pijlen voor aangrenzende kaarten.


METAR-TAF: